Time;durP1;ratioP1;P1;durP2;ratioP2;P2;SDS_P1;SDS_P2;PMS_P1;PMS_P2;Temp;Humidity;BMP_temperature;BMP_pressure;BME280_temperature;BME280_humidity;BME280_pressure;Samples;Min_cycle;Max_cycle;Signal;HPM_P1;HPM_P2
2023/10/19 00:01:18;;;;;;;3.85;3.28;;;13.10;99.90;;;;;;5096012;28;20020;-71
2023/10/19 00:03:44;;;;;;;3.38;3.05;;;13.20;99.90;;;;;;5095813;28;20365;-70
2023/10/19 00:06:11;;;;;;;4.05;3.20;;;13.20;99.90;;;;;;5095921;28;20019;-70
2023/10/19 00:08:46;;;;;;;4.32;3.45;;;13.20;99.90;;;;;;5077859;28;20032;-72
2023/10/19 00:11:22;;;;;;;3.67;3.25;;;13.20;99.90;;;;;;5095725;28;20044;-70
2023/10/19 00:13:54;;;;;;;4.68;3.17;;;13.20;99.90;;;;;;5095844;28;20053;-71
2023/10/19 00:16:25;;;;;;;3.85;3.25;;;13.20;99.90;;;;;;5095828;28;20097;-70
2023/10/19 00:18:52;;;;;;;3.10;2.80;;;13.20;99.90;;;;;;5095719;28;20074;-70
2023/10/19 00:23:51;;;;;;;3.47;2.75;;;13.20;99.90;;;;;;5095788;28;20031;-70
2023/10/19 00:26:20;;;;;;;3.08;2.60;;;13.20;99.90;;;;;;5095710;28;20031;-70
2023/10/19 00:28:50;;;;;;;4.95;2.80;;;13.20;99.90;;;;;;5095209;28;20086;-70
2023/10/19 00:31:23;;;;;;;3.10;2.80;;;13.20;99.90;;;;;;5095191;28;20027;-70
2023/10/19 00:33:54;;;;;;;3.80;3.00;;;13.20;99.90;;;;;;5095133;28;20056;-71
2023/10/19 00:36:21;;;;;;;3.00;2.78;;;13.20;99.90;;;;;;5095147;28;20020;-70
2023/10/19 00:38:51;;;;;;;3.65;2.60;;;13.30;99.90;;;;;;5095228;28;20024;-70
2023/10/19 00:41:31;;;;;;;3.30;2.40;;;13.30;99.90;;;;;;5095273;28;20471;-70
2023/10/19 00:44:07;;;;;;;2.83;2.20;;;13.30;99.90;;;;;;5095032;28;20034;-70
2023/10/19 00:46:37;;;;;;;2.30;2.10;;;13.30;99.90;;;;;;5095052;28;20023;-70
2023/10/19 00:49:06;;;;;;;3.30;2.08;;;13.30;99.90;;;;;;5095196;28;20511;-70
2023/10/19 00:54:36;;;;;;;2.03;1.80;;;13.30;99.90;;;;;;5094689;28;20020;-70
2023/10/19 00:57:07;;;;;;;2.38;1.88;;;13.30;99.90;;;;;;5094409;28;20031;-70
2023/10/19 00:59:42;;;;;;;2.63;1.93;;;13.30;99.90;;;;;;5091501;28;20028;-70
2023/10/19 01:02:19;;;;;;;2.33;1.98;;;13.30;99.90;;;;;;5091735;28;20024;-70
2023/10/19 01:05:06;;;;;;;3.20;2.33;;;13.30;99.90;;;;;;5093395;28;20027;-71
2023/10/19 01:07:37;;;;;;;3.70;2.15;;;13.30;99.90;;;;;;5094678;28;20024;-70
2023/10/19 01:13:06;;;;;;;3.38;2.35;;;13.30;99.90;;;;;;5012369;28;20157;-70
2023/10/19 01:15:36;;;;;;;2.33;1.95;;;13.30;99.90;;;;;;5077832;28;20040;-70
2023/10/19 01:18:04;;;;;;;3.15;1.98;;;13.30;99.90;;;;;;5094725;28;20081;-70
2023/10/19 01:25:59;;;;;;;1.80;1.48;;;13.30;99.90;;;;;;5094510;28;20081;-70
2023/10/19 01:31:30;;;;;;;1.58;1.10;;;13.30;99.90;;;;;;5094200;28;20125;-70
2023/10/19 01:34:06;;;;;;;4.90;1.10;;;13.40;99.90;;;;;;5094161;28;20048;-70
2023/10/19 01:36:42;;;;;;;1.50;0.90;;;13.30;99.90;;;;;;5093306;28;20473;-70
2023/10/19 01:39:12;;;;;;;1.45;0.90;;;13.40;99.90;;;;;;5094267;28;20028;-73
2023/10/19 01:41:41;;;;;;;1.60;0.90;;;13.40;99.90;;;;;;5094117;28;20045;-71
2023/10/19 01:44:15;;;;;;;1.27;1.15;;;13.40;99.90;;;;;;5075551;28;20122;-71
2023/10/19 01:46:45;;;;;;;2.60;1.20;;;13.40;99.90;;;;;;5094106;28;20024;-70
2023/10/19 01:49:11;;;;;;;2.65;1.10;;;13.40;99.90;;;;;;5094011;28;20047;-70
2023/10/19 01:51:43;;;;;;;1.20;1.10;;;13.40;99.90;;;;;;5094173;28;20066;-71
2023/10/19 01:54:11;;;;;;;1.20;0.95;;;13.40;99.90;;;;;;5093693;28;20024;-70
2023/10/19 01:56:38;;;;;;;1.75;1.10;;;13.40;99.90;;;;;;5093671;28;20020;-70
2023/10/19 01:59:04;;;;;;;1.38;0.95;;;13.40;99.90;;;;;;5093694;28;20027;-70
2023/10/19 02:01:32;;;;;;;3.80;0.90;;;13.40;99.90;;;;;;5075594;28;20024;-70
2023/10/19 02:04:00;;;;;;;0.70;0.60;;;13.40;99.90;;;;;;5094107;28;20111;-70
2023/10/19 02:06:35;;;;;;;1.23;0.77;;;13.30;99.90;;;;;;5093620;28;20020;-71
2023/10/19 02:09:14;;;;;;;1.95;0.80;;;13.30;99.90;;;;;;5093656;28;20055;-70
2023/10/19 02:11:45;;;;;;;1.63;0.70;;;13.40;99.90;;;;;;5093621;28;20024;-70
2023/10/19 02:14:14;;;;;;;0.80;0.50;;;13.40;99.90;;;;;;5093942;28;20043;-70
2023/10/19 02:16:44;;;;;;;0.73;0.73;;;13.40;99.90;;;;;;5093651;28;20380;-70
2023/10/19 02:19:10;;;;;;;1.48;0.70;;;13.30;99.90;;;;;;5093210;28;20095;-71
2023/10/19 02:21:39;;;;;;;1.38;0.60;;;13.40;99.90;;;;;;5093508;28;20036;-71
2023/10/19 02:24:16;;;;;;;2.88;0.77;;;13.40;99.90;;;;;;5093628;28;20070;-71
2023/10/19 02:26:43;;;;;;;3.08;0.70;;;13.40;99.90;;;;;;5093650;28;20024;-70
2023/10/19 02:29:12;;;;;;;2.90;0.90;;;13.40;99.90;;;;;;5093326;28;20487;-71
2023/10/19 02:31:42;;;;;;;1.02;0.60;;;13.40;99.90;;;;;;5093348;28;20024;-70
2023/10/19 02:34:10;;;;;;;0.70;0.52;;;13.40;99.90;;;;;;5092934;28;20510;-70
2023/10/19 02:36:37;;;;;;;0.88;0.70;;;13.40;99.90;;;;;;5074860;28;20047;-71
2023/10/19 02:39:08;;;;;;;3.55;0.60;;;13.40;99.90;;;;;;5093277;28;20039;-70
2023/10/19 02:41:36;;;;;;;0.50;0.50;;;13.40;99.90;;;;;;5093215;28;20020;-71
2023/10/19 02:46:41;;;;;;;1.30;0.40;;;13.40;99.90;;;;;;5093360;28;20146;-70
2023/10/19 02:49:11;;;;;;;0.52;0.52;;;13.40;99.90;;;;;;5092937;28;20085;-70
2023/10/19 02:51:44;;;;;;;2.47;0.40;;;13.40;99.90;;;;;;5092882;28;20024;-70
2023/10/19 02:54:33;;;;;;;0.70;0.50;;;13.40;99.90;;;;;;5092923;28;20105;-71
2023/10/19 02:56:58;;;;;;;0.90;0.50;;;13.40;99.90;;;;;;5092397;28;20024;-70
2023/10/19 02:59:28;;;;;;;0.77;0.40;;;13.40;99.90;;;;;;5092945;28;20077;-70
2023/10/19 03:04:37;;;;;;;1.17;0.47;;;13.40;99.90;;;;;;5092317;28;20021;-71
2023/10/19 03:07:07;;;;;;;1.35;0.50;;;13.40;99.90;;;;;;5092515;28;20430;-70
2023/10/19 03:09:36;;;;;;;0.30;0.30;;;13.40;99.90;;;;;;5093515;28;20050;-70
2023/10/19 03:12:05;;;;;;;2.05;0.50;;;13.40;99.90;;;;;;5095327;28;20020;-70
2023/10/19 03:14:32;;;;;;;0.38;0.30;;;13.30;99.90;;;;;;5094901;28;20034;-71
2023/10/19 03:17:01;;;;;;;1.38;0.40;;;13.40;99.90;;;;;;5092631;28;20028;-70
2023/10/19 03:19:27;;;;;;;2.03;0.47;;;13.30;99.90;;;;;;5092561;28;20024;-70
2023/10/19 03:21:55;;;;;;;0.60;0.40;;;13.30;99.90;;;;;;5092921;28;20027;-70
2023/10/19 03:24:36;;;;;;;0.77;0.40;;;13.30;99.90;;;;;;5092720;28;20024;-70
2023/10/19 03:27:18;;;;;;;1.27;0.40;;;13.40;99.90;;;;;;5092804;28;20028;-70
2023/10/19 03:29:53;;;;;;;0.77;0.55;;;13.40;99.90;;;;;;5092390;28;20127;-70
2023/10/19 03:32:22;;;;;;;0.80;0.43;;;13.30;99.90;;;;;;5095792;28;20126;-70
2023/10/19 03:34:49;;;;;;;0.90;0.40;;;13.30;99.90;;;;;;5096575;28;20075;-70
2023/10/19 03:37:17;;;;;;;0.43;0.30;;;13.40;99.90;;;;;;5078345;28;20112;-70
2023/10/19 03:39:45;;;;;;;0.93;0.57;;;13.40;99.90;;;;;;5096839;28;20032;-71
2023/10/19 03:42:13;;;;;;;1.17;1.10;;;13.40;99.90;;;;;;5096481;28;20024;-71
2023/10/19 03:47:11;;;;;;;1.27;1.02;;;13.30;99.90;;;;;;5096492;28;20454;-70
2023/10/19 03:49:39;;;;;;;0.95;0.50;;;13.30;99.90;;;;;;5096240;28;20036;-70
2023/10/19 03:54:38;;;;;;;0.30;0.28;;;13.30;99.90;;;;;;5096181;28;20089;-70
2023/10/19 03:57:06;;;;;;;0.30;0.30;;;13.30;99.90;;;;;;5096090;28;20020;-71
2023/10/19 03:59:33;;;;;;;2.53;0.50;;;13.30;99.90;;;;;;5096138;28;20110;-71
2023/10/19 04:02:00;;;;;;;0.98;0.52;;;13.30;99.90;;;;;;5096065;28;20487;-71
2023/10/19 04:04:29;;;;;;;1.30;0.52;;;13.40;99.90;;;;;;5096060;28;20024;-76
2023/10/19 04:06:58;;;;;;;0.45;0.40;;;13.40;99.90;;;;;;5096137;28;20065;-71
2023/10/19 04:09:34;;;;;;;1.92;0.35;;;13.40;99.90;;;;;;5077704;28;20591;-77
2023/10/19 04:12:02;;;;;;;0.98;0.52;;;13.30;99.90;;;;;;5095594;28;20023;-71
2023/10/19 04:14:30;;;;;;;1.30;0.50;;;13.30;99.90;;;;;;5077707;28;20052;-74
2023/10/19 04:16:59;;;;;;;0.50;0.40;;;13.40;99.90;;;;;;5095804;28;20024;-70
2023/10/19 04:19:28;;;;;;;2.90;0.40;;;13.40;99.90;;;;;;5095812;28;20032;-70
2023/10/19 04:21:55;;;;;;;0.63;0.50;;;13.40;99.90;;;;;;5095515;28;20069;-71
2023/10/19 04:24:21;;;;;;;1.13;0.45;;;13.30;99.90;;;;;;5095705;28;20016;-71
2023/10/19 04:26:48;;;;;;;1.40;0.50;;;13.40;99.90;;;;;;5095442;28;20028;-71
2023/10/19 04:29:17;;;;;;;1.55;0.70;;;13.40;99.90;;;;;;5095286;28;20032;-77
2023/10/19 04:31:49;;;;;;;1.23;0.60;;;13.40;99.90;;;;;;5092565;28;20020;-70
2023/10/19 04:34:20;;;;;;;0.90;0.57;;;13.40;99.90;;;;;;5095182;28;20127;-70
2023/10/19 04:36:47;;;;;;;0.82;0.50;;;13.30;99.90;;;;;;5077056;28;20038;-70
2023/10/19 04:39:13;;;;;;;2.08;1.13;;;13.40;99.90;;;;;;5095273;28;20399;-70
2023/10/19 04:41:44;;;;;;;1.40;0.52;;;13.40;99.90;;;;;;5094992;28;20048;-71
2023/10/19 04:44:10;;;;;;;1.08;0.55;;;13.40;99.90;;;;;;5095216;28;20484;-70
2023/10/19 04:46:40;;;;;;;1.23;0.70;;;13.40;99.90;;;;;;5094731;28;20115;-71
2023/10/19 04:49:05;;;;;;;1.67;0.50;;;13.40;99.90;;;;;;5094848;28;20032;-70
2023/10/19 04:51:31;;;;;;;0.85;0.50;;;13.40;99.90;;;;;;5095008;28;20081;-70
2023/10/19 04:53:57;;;;;;;0.93;0.70;;;13.40;99.90;;;;;;5095087;28;20024;-70
2023/10/19 04:56:23;;;;;;;2.20;0.70;;;13.40;99.90;;;;;;5094438;28;20412;-70
2023/10/19 04:58:52;;;;;;;2.92;0.57;;;13.40;99.90;;;;;;5094502;28;20429;-70
2023/10/19 05:01:18;;;;;;;0.98;0.63;;;13.50;99.90;;;;;;5094613;28;20027;-70
2023/10/19 05:03:44;;;;;;;0.95;0.70;;;13.40;99.90;;;;;;5076827;28;20020;-70
2023/10/19 05:06:10;;;;;;;1.20;0.70;;;13.50;99.90;;;;;;5074489;28;20025;-70
2023/10/19 05:08:37;;;;;;;1.17;0.50;;;13.50;99.90;;;;;;5073892;28;20028;-70
2023/10/19 05:11:06;;;;;;;4.10;0.80;;;13.50;99.90;;;;;;5074394;28;20028;-70
2023/10/19 05:13:35;;;;;;;1.13;0.80;;;13.50;99.90;;;;;;5074314;28;20039;-70
2023/10/19 05:16:00;;;;;;;1.52;1.10;;;13.50;99.90;;;;;;5073987;28;20036;-69
2023/10/19 05:18:26;;;;;;;2.53;1.13;;;13.50;99.90;;;;;;5074159;28;20033;-70
2023/10/19 05:20:55;;;;;;;4.43;1.10;;;13.50;99.90;;;;;;5074413;28;20488;-70
2023/10/19 05:23:25;;;;;;;1.30;1.20;;;13.50;99.90;;;;;;5074373;28;20404;-70
2023/10/19 05:25:53;;;;;;;1.40;0.98;;;13.50;99.90;;;;;;5056043;28;20026;-70
2023/10/19 05:28:21;;;;;;;2.40;1.30;;;13.50;99.90;;;;;;5074129;28;20495;-70
2023/10/19 05:30:49;;;;;;;4.63;1.10;;;13.60;99.90;;;;;;5074263;28;20431;-70
2023/10/19 05:33:23;;;;;;;1.40;1.05;;;13.60;99.90;;;;;;5073219;28;20044;-70
2023/10/19 05:35:50;;;;;;;1.83;0.95;;;13.60;99.90;;;;;;5057291;28;20032;-70
2023/10/19 05:38:16;;;;;;;2.10;1.30;;;13.60;99.90;;;;;;5073905;28;20063;-70
2023/10/19 05:40:45;;;;;;;1.38;1.00;;;13.50;99.90;;;;;;5074138;28;20078;-70
2023/10/19 05:43:12;;;;;;;2.08;1.10;;;13.50;99.90;;;;;;5073968;28;20017;-70
2023/10/19 05:45:40;;;;;;;1.70;1.33;;;13.50;99.90;;;;;;5073656;28;20036;-70
2023/10/19 05:48:06;;;;;;;2.72;1.27;;;13.50;99.90;;;;;;5073893;28;20476;-70
2023/10/19 05:50:34;;;;;;;2.97;1.27;;;13.60;99.90;;;;;;5073997;28;20036;-70
2023/10/19 05:53:09;;;;;;;2.95;1.48;;;13.50;99.90;;;;;;5073291;28;20032;-70
2023/10/19 05:55:35;;;;;;;3.22;1.80;;;13.60;99.90;;;;;;5055644;28;20071;-70
2023/10/19 05:58:04;;;;;;;4.53;1.63;;;13.60;99.90;;;;;;5055521;28;20025;-70
2023/10/19 06:00:30;;;;;;;2.40;1.45;;;13.60;99.90;;;;;;5073151;28;20096;-70
2023/10/19 06:02:59;;;;;;;4.40;1.48;;;13.60;99.90;;;;;;5073429;28;20037;-70
2023/10/19 06:05:25;;;;;;;3.10;2.20;;;13.60;99.90;;;;;;5080889;28;20372;-70
2023/10/19 06:07:53;;;;;;;2.08;1.20;;;13.60;99.90;;;;;;5082282;28;20024;-70
2023/10/19 06:10:22;;;;;;;3.00;1.50;;;13.60;99.90;;;;;;5072780;28;20123;-70
2023/10/19 06:12:51;;;;;;;3.22;1.48;;;13.60;99.90;;;;;;5073267;28;20044;-70
2023/10/19 06:15:20;;;;;;;3.00;1.75;;;13.60;99.90;;;;;;5073398;28;20354;-70
2023/10/19 06:17:47;;;;;;;3.25;1.92;;;13.60;99.90;;;;;;5073055;28;20375;-70
2023/10/19 06:20:23;;;;;;;5.03;1.60;;;13.60;99.90;;;;;;5072923;28;20020;-69
2023/10/19 06:22:56;;;;;;;3.60;1.40;;;13.60;99.90;;;;;;5055172;28;20447;-70
2023/10/19 06:25:24;;;;;;;3.10;1.60;;;13.60;99.90;;;;;;5073110;28;20021;-70
2023/10/19 06:27:51;;;;;;;4.22;1.58;;;13.60;99.90;;;;;;5073226;28;20095;-70
2023/10/19 06:30:18;;;;;;;1.80;1.35;;;13.60;99.90;;;;;;5072974;28;20032;-70
2023/10/19 06:33:00;;;;;;;3.15;1.45;;;13.60;99.90;;;;;;5072432;28;20049;-70
2023/10/19 06:35:27;;;;;;;2.35;1.40;;;13.70;99.90;;;;;;5072506;28;20045;-70
2023/10/19 06:37:57;;;;;;;1.88;1.30;;;13.70;99.90;;;;;;5070890;28;20440;-72
2023/10/19 06:40:23;;;;;;;2.10;1.60;;;13.70;99.90;;;;;;5074525;28;20427;-70
2023/10/19 06:42:49;;;;;;;2.67;1.50;;;13.70;99.90;;;;;;5031568;28;20504;-71
2023/10/19 06:45:18;;;;;;;3.45;1.60;;;13.70;99.90;;;;;;5032402;28;20029;-72
2023/10/19 06:47:49;;;;;;;2.85;1.60;;;13.70;99.90;;;;;;5032200;28;20442;-71
2023/10/19 06:50:17;;;;;;;3.20;1.52;;;13.70;99.90;;;;;;5032435;28;20407;-70
2023/10/19 06:52:46;;;;;;;4.28;1.63;;;13.70;99.90;;;;;;5032636;28;20024;-70
2023/10/19 06:55:16;;;;;;;3.63;2.05;;;13.70;99.90;;;;;;5032296;28;20025;-71
2023/10/19 06:57:49;;;;;;;6.00;3.22;;;13.70;99.90;;;;;;5032462;28;20100;-77
2023/10/19 07:00:20;;;;;;;4.38;3.00;;;13.80;99.90;;;;;;5032496;28;20068;-72
2023/10/19 07:02:53;;;;;;;3.97;2.53;;;13.70;99.90;;;;;;5032391;28;20071;-73
2023/10/19 07:05:24;;;;;;;4.15;3.03;;;13.80;99.90;;;;;;5033830;28;20374;-71
2023/10/19 07:07:51;;;;;;;3.85;2.70;;;13.80;99.90;;;;;;5036328;28;20033;-70
2023/10/19 07:10:18;;;;;;;6.57;3.22;;;13.80;99.90;;;;;;5037050;28;20091;-73
2023/10/19 07:12:46;;;;;;;6.28;3.55;;;13.80;99.90;;;;;;5036564;28;20028;-73
2023/10/19 07:15:18;;;;;;;6.32;2.88;;;13.80;99.90;;;;;;5036420;28;20151;-71
2023/10/19 07:17:46;;;;;;;5.22;2.95;;;13.80;99.90;;;;;;5035930;28;20487;-71
2023/10/19 07:20:31;;;;;;;5.10;3.65;;;13.80;99.90;;;;;;5036644;28;20061;-76
2023/10/19 07:23:18;;;;;;;5.30;2.85;;;13.80;99.90;;;;;;5036558;28;20478;-76
2023/10/19 07:25:47;;;;;;;4.35;2.25;;;13.80;99.90;;;;;;5035238;28;20032;-77
2023/10/19 07:28:14;;;;;;;6.32;2.38;;;13.80;99.90;;;;;;5034455;28;20018;-71
2023/10/19 07:30:42;;;;;;;4.72;2.20;;;13.80;99.90;;;;;;5035542;28;20132;-72
2023/10/19 07:33:18;;;;;;;3.47;2.00;;;13.80;99.90;;;;;;5034727;28;20060;-70
2023/10/19 07:35:52;;;;;;;3.95;1.83;;;13.90;99.90;;;;;;5035170;28;20075;-70
2023/10/19 07:38:20;;;;;;;4.75;1.85;;;13.90;99.90;;;;;;5035743;28;20188;-70
2023/10/19 07:40:46;;;;;;;3.58;1.70;;;13.90;99.90;;;;;;5034813;28;20036;-68
2023/10/19 07:43:14;;;;;;;2.80;1.95;;;13.90;99.90;;;;;;5035513;28;20022;-70
2023/10/19 07:45:41;;;;;;;3.45;1.98;;;13.90;99.90;;;;;;5035661;28;20052;-70
2023/10/19 07:48:10;;;;;;;3.03;1.98;;;13.90;99.90;;;;;;5035508;28;20033;-69
2023/10/19 07:50:38;;;;;;;6.20;2.40;;;13.90;99.90;;;;;;5033458;28;20068;-69
2023/10/19 07:53:04;;;;;;;5.65;2.88;;;13.90;99.90;;;;;;5035782;28;20024;-70
2023/10/19 07:55:33;;;;;;;7.72;2.53;;;13.90;99.90;;;;;;5035725;28;20030;-71
2023/10/19 07:58:06;;;;;;;8.55;2.72;;;14.00;99.90;;;;;;5035788;28;20018;-71
2023/10/19 08:00:35;;;;;;;5.47;3.00;;;13.90;99.90;;;;;;5035445;28;20028;-69
2023/10/19 08:03:02;;;;;;;5.30;2.92;;;14.00;99.90;;;;;;5035242;28;20021;-69
2023/10/19 08:05:28;;;;;;;3.50;2.75;;;14.00;99.90;;;;;;5035316;28;20028;-70
2023/10/19 08:07:57;;;;;;;6.13;2.40;;;14.00;99.90;;;;;;5035325;28;20018;-69
2023/10/19 08:10:26;;;;;;;6.35;2.20;;;14.00;99.90;;;;;;5035317;28;20434;-70
2023/10/19 08:12:53;;;;;;;5.72;2.00;;;14.00;99.90;;;;;;5035433;28;20033;-69
2023/10/19 08:15:28;;;;;;;5.85;1.70;;;14.00;99.90;;;;;;5035196;28;20033;-69
2023/10/19 08:17:54;;;;;;;3.55;1.85;;;14.00;99.90;;;;;;5032033;28;20026;-70
2023/10/19 08:20:23;;;;;;;4.68;1.80;;;14.00;99.90;;;;;;5034532;28;20378;-70
2023/10/19 08:22:53;;;;;;;4.65;1.80;;;14.10;99.90;;;;;;5034957;28;20017;-70
2023/10/19 08:25:20;;;;;;;2.63;1.83;;;14.10;99.90;;;;;;5034971;28;20060;-70
2023/10/19 08:27:50;;;;;;;3.50;2.00;;;14.10;99.90;;;;;;5035571;28;20444;-70
2023/10/19 08:30:21;;;;;;;2.42;1.75;;;14.10;99.90;;;;;;5033106;28;20116;-70
2023/10/19 08:32:47;;;;;;;4.13;1.80;;;14.10;99.90;;;;;;5035648;28;20056;-71
2023/10/19 08:35:20;;;;;;;3.40;1.73;;;14.10;99.90;;;;;;5035597;28;20420;-71
2023/10/19 08:37:46;;;;;;;;;;;14.10;99.90;;;;;;5035529;28;20035;-71
2023/10/19 08:40:16;;;;;;;4.22;2.15;;;14.10;99.90;;;;;;5034812;28;19905;-70
2023/10/19 08:42:43;;;;;;;4.05;2.38;;;14.10;99.90;;;;;;5034807;28;20056;-70
2023/10/19 08:45:12;;;;;;;5.43;2.10;;;14.10;99.90;;;;;;5035140;28;20022;-70
2023/10/19 08:47:47;;;;;;;2.60;1.85;;;14.10;99.90;;;;;;5034759;28;20021;-70
2023/10/19 08:50:14;;;;;;;2.47;1.67;;;14.10;99.90;;;;;;5034647;28;20037;-71
2023/10/19 08:52:42;;;;;;;2.95;1.67;;;14.10;99.90;;;;;;5034537;28;20056;-71
2023/10/19 08:55:09;;;;;;;2.53;1.63;;;14.20;99.90;;;;;;5035019;28;20040;-70
2023/10/19 08:57:37;;;;;;;3.78;1.73;;;14.20;99.90;;;;;;5033755;28;20031;-71
2023/10/19 09:00:06;;;;;;;2.92;1.70;;;14.20;99.90;;;;;;5034769;28;20032;-70
2023/10/19 09:02:34;;;;;;;5.28;2.33;;;14.20;99.90;;;;;;5035198;28;20140;-70
2023/10/19 09:05:07;;;;;;;2.30;1.98;;;14.20;99.90;;;;;;5034974;28;20071;-70
2023/10/19 09:07:34;;;;;;;;;;;14.20;99.90;;;;;;5034945;28;20091;-70
2023/10/19 09:10:01;;;;;;;5.05;2.75;;;14.30;99.90;;;;;;5034418;28;20262;-70
2023/10/19 09:12:27;;;;;;;4.85;2.70;;;14.20;99.90;;;;;;5034051;28;20033;-70
2023/10/19 09:14:52;;;;;;;6.80;3.83;;;14.30;99.90;;;;;;5034580;28;20040;-70
2023/10/19 09:17:31;;;;;;;4.90;3.22;;;14.30;99.90;;;;;;5034524;28;20029;-70
2023/10/19 09:19:59;;;;;;;6.88;3.85;;;14.30;99.90;;;;;;5034454;28;20025;-70
2023/10/19 09:22:25;;;;;;;5.10;3.00;;;14.40;99.90;;;;;;5034129;28;20031;-70
2023/10/19 09:24:55;;;;;;;5.13;3.70;;;14.40;99.90;;;;;;5034523;28;20104;-70
2023/10/19 09:27:21;;;;;;;12.93;3.40;;;14.40;99.90;;;;;;5034244;28;20025;-70
2023/10/19 09:29:49;;;;;;;9.68;3.80;;;14.40;99.90;;;;;;5033413;28;20044;-70
2023/10/19 09:32:16;;;;;;;5.43;3.22;;;14.40;99.90;;;;;;5033990;28;20083;-70
2023/10/19 09:34:44;;;;;;;6.72;3.58;;;14.50;99.90;;;;;;5034357;28;20037;-70
2023/10/19 09:37:11;;;;;;;5.88;3.55;;;14.40;99.90;;;;;;5034308;28;20025;-70
2023/10/19 09:39:37;;;;;;;4.55;3.13;;;14.50;99.90;;;;;;5034259;28;20029;-71
2023/10/19 09:42:10;;;;;;;3.92;2.67;;;14.50;99.90;;;;;;5034458;28;20055;-70
2023/10/19 09:44:54;;;;;;;4.97;3.17;;;14.50;99.90;;;;;;5034235;28;20504;-71
2023/10/19 09:47:35;;;;;;;6.55;3.28;;;14.50;99.90;;;;;;5033579;28;20409;-72
2023/10/19 09:50:05;;;;;;;7.45;3.90;;;14.50;99.90;;;;;;5033793;28;20038;-71
2023/10/19 09:52:32;;;;;;;7.28;4.97;;;14.50;99.90;;;;;;5034006;28;20029;-70
2023/10/19 09:55:06;;;;;;;6.82;2.88;;;14.50;99.90;;;;;;5034006;28;20033;-71
2023/10/19 09:57:39;;;;;;;6.38;3.40;;;14.60;99.90;;;;;;5033685;28;20053;-70
2023/10/19 10:00:11;;;;;;;6.22;3.00;;;14.60;99.90;;;;;;5033672;28;20025;-70
2023/10/19 10:02:41;;;;;;;3.58;2.90;;;14.60;99.90;;;;;;5032915;28;20454;-70
2023/10/19 10:05:42;;;;;;;7.00;3.30;;;14.60;99.90;;;;;;5033514;28;20060;-70
2023/10/19 10:08:21;;;;;;;6.07;4.93;;;14.60;99.90;;;;;;5033269;28;20466;-70
2023/10/19 10:10:49;;;;;;;6.28;3.67;;;14.60;99.90;;;;;;5033268;28;20036;-70
2023/10/19 10:13:38;;;;;;;6.80;4.00;;;14.70;99.90;;;;;;5033213;28;20029;-70
2023/10/19 10:16:04;;;;;;;4.45;3.55;;;14.70;99.90;;;;;;5025747;28;20037;-70
2023/10/19 10:18:31;;;;;;;6.15;4.00;;;14.70;99.90;;;;;;5033253;28;20025;-71
2023/10/19 10:21:12;;;;;;;6.20;4.30;;;14.70;99.90;;;;;;5031872;28;20560;-70
2023/10/19 10:23:52;;;;;;;7.47;5.10;;;14.80;99.90;;;;;;5030285;28;20037;-70
2023/10/19 10:26:22;;;;;;;7.93;5.95;;;14.80;99.90;;;;;;5030448;28;20112;-71
2023/10/19 10:29:14;;;;;;;6.10;5.47;;;14.80;99.90;;;;;;5031407;28;20099;-71
2023/10/19 10:31:45;;;;;;;7.18;4.40;;;14.80;99.90;;;;;;5030526;28;20017;-71
2023/10/19 10:34:31;;;;;;;6.88;4.75;;;14.80;99.90;;;;;;5031276;28;20037;-71
2023/10/19 10:37:07;;;;;;;5.20;4.28;;;14.80;99.90;;;;;;5032781;28;20029;-71
2023/10/19 10:39:38;;;;;;;6.18;4.30;;;14.90;99.90;;;;;;5032739;28;20032;-71
2023/10/19 10:42:06;;;;;;;6.68;4.60;;;14.90;99.90;;;;;;5032507;28;20535;-71
2023/10/19 10:44:42;;;;;;;5.13;4.50;;;14.90;99.90;;;;;;5032364;28;20436;-71
2023/10/19 10:47:16;;;;;;;6.38;4.85;;;15.00;99.90;;;;;;5032827;28;20109;-71
2023/10/19 10:49:54;;;;;;;8.20;4.45;;;15.00;99.90;;;;;;5032532;28;20481;-71
2023/10/19 10:52:31;;;;;;;8.32;4.30;;;15.00;99.90;;;;;;5032490;28;20059;-71
2023/10/19 10:54:59;;;;;;;9.02;4.38;;;15.00;99.90;;;;;;5032790;28;20041;-70
2023/10/19 10:57:32;;;;;;;6.65;4.53;;;15.00;99.90;;;;;;5032493;28;20512;-70
2023/10/19 11:00:07;;;;;;;6.20;4.65;;;15.00;99.90;;;;;;5031532;28;20025;-70
2023/10/19 11:02:35;;;;;;;6.75;4.75;;;15.00;99.90;;;;;;5032827;28;20499;-70
2023/10/19 11:05:01;;;;;;;8.00;5.38;;;15.00;99.90;;;;;;5032644;28;20385;-70
2023/10/19 11:07:27;;;;;;;4.55;3.50;;;15.00;99.90;;;;;;5032696;28;20017;-70
2023/10/19 11:09:56;;;;;;;7.80;3.75;;;15.00;99.90;;;;;;5032710;28;20500;-71
2023/10/19 11:12:22;;;;;;;3.50;2.90;;;15.00;99.90;;;;;;5032302;28;20585;-70
2023/10/19 11:14:53;;;;;;;4.88;3.05;;;15.00;99.90;;;;;;5032262;28;20028;-71
2023/10/19 11:17:19;;;;;;;4.25;2.60;;;15.00;99.90;;;;;;5032182;28;20028;-70
2023/10/19 11:19:45;;;;;;;5.63;2.67;;;15.00;99.90;;;;;;5032052;28;20105;-71
2023/10/19 11:22:11;;;;;;;3.45;2.47;;;15.00;99.90;;;;;;5031256;28;20037;-72
2023/10/19 11:24:40;;;;;;;8.32;3.00;;;15.00;99.90;;;;;;5032257;28;20125;-71
2023/10/19 11:27:07;;;;;;;5.20;2.90;;;15.00;99.90;;;;;;5031238;28;20370;-71
2023/10/19 11:29:36;;;;;;;3.95;2.80;;;15.00;99.90;;;;;;5032371;28;20034;-71
2023/10/19 11:32:02;;;;;;;7.28;3.28;;;15.00;99.90;;;;;;5032249;28;20527;-71
2023/10/19 11:34:29;;;;;;;9.25;6.15;;;15.10;99.90;;;;;;5032489;28;20042;-71
2023/10/19 11:36:59;;;;;;;6.22;4.97;;;15.00;99.90;;;;;;5031105;28;20453;-71
2023/10/19 11:39:26;;;;;;;5.32;3.75;;;15.00;99.90;;;;;;5032039;28;20025;-72
2023/10/19 11:41:53;;;;;;;7.60;3.85;;;15.10;99.90;;;;;;5032424;28;20091;-71
2023/10/19 11:44:19;;;;;;;5.35;3.63;;;15.00;99.90;;;;;;5032390;28;20492;-71
2023/10/19 11:46:45;;;;;;;9.20;3.90;;;15.10;99.90;;;;;;5032345;28;20022;-71
2023/10/19 11:49:11;;;;;;;4.32;2.80;;;15.10;99.90;;;;;;5032274;28;20116;-70
2023/10/19 11:51:37;;;;;;;4.32;3.00;;;15.10;99.90;;;;;;5033027;28;20549;-70
2023/10/19 11:54:08;;;;;;;6.28;3.10;;;15.10;99.90;;;;;;5035748;28;20029;-71
2023/10/19 11:56:34;;;;;;;5.82;3.28;;;15.10;99.90;;;;;;5035922;28;20029;-71
2023/10/19 11:59:01;;;;;;;7.47;2.78;;;15.10;99.90;;;;;;5035999;28;20117;-71
2023/10/19 12:01:29;;;;;;;9.05;2.67;;;15.10;99.90;;;;;;5035495;28;20392;-71
2023/10/19 12:03:55;;;;;;;4.80;2.55;;;15.10;99.90;;;;;;5035431;28;20112;-71
2023/10/19 12:06:23;;;;;;;3.97;2.92;;;15.20;99.90;;;;;;5035810;28;20056;-71
2023/10/19 12:08:49;;;;;;;4.85;2.47;;;15.20;99.90;;;;;;5035475;28;20501;-71
2023/10/19 12:11:16;;;;;;;5.03;2.60;;;15.20;99.90;;;;;;5035548;28;20497;-71
2023/10/19 12:13:43;;;;;;;5.18;2.95;;;15.20;99.90;;;;;;5035808;28;20021;-71
2023/10/19 12:16:12;;;;;;;6.22;2.78;;;15.20;99.90;;;;;;5035874;28;20033;-70
2023/10/19 12:18:39;;;;;;;5.10;2.90;;;15.20;99.90;;;;;;5035534;28;20022;-71
2023/10/19 12:21:07;;;;;;;4.93;2.78;;;15.20;99.90;;;;;;5035445;28;20381;-71
2023/10/19 12:23:35;;;;;;;10.93;3.80;;;15.20;99.90;;;;;;5035464;28;20084;-70
2023/10/19 12:26:04;;;;;;;10.95;3.40;;;15.20;99.90;;;;;;5035453;28;20476;-71
2023/10/19 12:28:30;;;;;;;6.57;3.00;;;15.20;99.90;;;;;;5034963;28;20021;-70
2023/10/19 12:30:56;;;;;;;9.07;3.05;;;15.20;99.90;;;;;;5035480;28;20033;-71
2023/10/19 12:33:22;;;;;;;7.20;3.40;;;15.20;99.90;;;;;;5035230;28;20053;-71
2023/10/19 12:35:57;;;;;;;10.20;3.90;;;15.20;99.90;;;;;;5034936;28;20144;-71
2023/10/19 12:38:23;;;;;;;9.70;3.95;;;15.20;99.90;;;;;;5035016;28;20084;-70
2023/10/19 12:40:54;;;;;;;10.43;4.13;;;15.20;99.90;;;;;;5034983;28;20040;-70
2023/10/19 12:43:23;;;;;;;6.22;4.35;;;15.20;99.90;;;;;;5034584;28;20032;-70
2023/10/19 12:45:57;;;;;;;5.82;3.90;;;15.20;99.90;;;;;;5032595;28;20029;-70
2023/10/19 12:48:30;;;;;;;6.70;4.20;;;15.30;99.90;;;;;;5035168;28;20073;-70
2023/10/19 12:50:55;;;;;;;8.05;4.88;;;15.30;99.90;;;;;;5035071;28;20033;-70
2023/10/19 12:53:24;;;;;;;6.80;4.40;;;15.30;99.90;;;;;;5034720;28;20117;-70
2023/10/19 12:55:52;;;;;;;7.75;4.68;;;15.30;99.90;;;;;;5034686;28;20039;-70
2023/10/19 12:58:19;;;;;;;11.68;5.30;;;15.30;99.90;;;;;;5034665;28;20482;-70
2023/10/19 13:00:47;;;;;;;12.63;4.70;;;15.30;99.90;;;;;;5034698;28;20033;-70
2023/10/19 13:03:14;;;;;;;7.70;4.90;;;15.30;99.90;;;;;;5034362;28;20030;-73
2023/10/19 13:05:41;;;;;;;8.32;4.85;;;15.30;99.90;;;;;;5034764;28;20033;-71
2023/10/19 13:08:08;;;;;;;7.13;4.80;;;15.30;99.90;;;;;;5034636;28;20159;-71
2023/10/19 13:10:36;;;;;;;9.15;4.20;;;15.40;99.90;;;;;;5034643;28;20073;-71
2023/10/19 13:13:04;;;;;;;10.27;4.72;;;15.40;99.90;;;;;;5034648;28;20025;-70
2023/10/19 13:15:41;;;;;;;7.97;4.78;;;15.40;99.90;;;;;;5034633;28;20393;-71
2023/10/19 13:18:09;;;;;;;10.55;5.07;;;15.40;99.90;;;;;;5034396;28;20033;-70
2023/10/19 13:20:37;;;;;;;7.80;5.53;;;15.40;99.90;;;;;;5034326;28;20028;-69
2023/10/19 13:23:07;;;;;;;13.65;6.03;;;15.40;99.90;;;;;;5034366;28;20029;-70
2023/10/19 13:25:41;;;;;;;13.93;5.40;;;15.40;99.90;;;;;;5034416;28;20022;-70
2023/10/19 13:28:13;;;;;;;13.57;5.22;;;15.40;99.90;;;;;;5034664;28;20018;-70